Time;durP1;ratioP1;P1;durP2;ratioP2;P2;SDS_P1;SDS_P2;PMS_P1;PMS_P2;Temp;Humidity;BMP_temperature;BMP_pressure;BME280_temperature;BME280_humidity;BME280_pressure;Samples;Min_cycle;Max_cycle;Signal;HPM_P1;HPM_P2
2023/06/03 00:02:20;;;;;;;0.50;0.50;;;21.20;53.00;;;;;;8432890;28;20385;-51
2023/06/03 00:06:21;;;;;;;1.10;1.00;;;21.20;53.00;;;;;;8433917;28;20048;-51
2023/06/03 00:10:21;;;;;;;0.90;0.70;;;21.20;52.90;;;;;;8433592;28;20024;-52
2023/06/03 00:14:22;;;;;;;0.70;0.70;;;21.20;52.90;;;;;;8433075;28;20272;-52
2023/06/03 00:18:23;;;;;;;1.27;0.80;;;21.30;52.90;;;;;;8415507;28;20012;-49
2023/06/03 00:22:23;;;;;;;0.80;0.80;;;21.20;52.90;;;;;;8432371;28;20039;-51
2023/06/03 00:26:25;;;;;;;0.85;0.80;;;21.20;52.90;;;;;;8433312;28;20024;-50
2023/06/03 00:30:26;;;;;;;0.70;0.70;;;21.20;52.90;;;;;;8431867;28;20588;-51
2023/06/03 00:34:26;;;;;;;0.70;0.70;;;21.20;52.90;;;;;;8433365;28;20097;-51
2023/06/03 00:38:27;;;;;;;0.68;0.68;;;21.20;52.90;;;;;;8431697;28;20121;-52
2023/06/03 00:42:28;;;;;;;0.75;0.75;;;21.20;53.00;;;;;;8433241;28;20032;-52
2023/06/03 00:46:32;;;;;;;0.60;0.60;;;21.20;52.90;;;;;;8431259;28;20492;-49
2023/06/03 00:50:33;;;;;;;0.80;0.80;;;21.20;52.90;;;;;;8432343;28;20055;-51
2023/06/03 00:54:34;;;;;;;0.77;0.77;;;21.20;52.90;;;;;;8432394;28;20027;-51
2023/06/03 00:58:35;;;;;;;0.60;0.60;;;21.20;52.90;;;;;;8431712;28;20103;-52
2023/06/03 01:02:36;;;;;;;0.80;0.77;;;21.20;52.90;;;;;;8432334;28;20029;-52
2023/06/03 01:06:47;;;;;;;1.00;0.93;;;21.20;53.00;;;;;;8430278;28;20101;-51
2023/06/03 01:11:06;;;;;;;0.90;0.80;;;21.20;52.90;;;;;;8432317;28;20032;-51
2023/06/03 01:15:12;;;;;;;0.85;0.75;;;21.20;52.90;;;;;;8430554;28;20040;-52
2023/06/03 01:19:38;;;;;;;0.60;0.60;;;21.20;52.90;;;;;;8431069;28;20024;-49
2023/06/03 01:23:43;;;;;;;0.80;0.63;;;21.20;52.90;;;;;;8431322;28;20085;-51
2023/06/03 01:27:48;;;;;;;1.00;0.90;;;21.20;52.90;;;;;;8430285;28;20397;-51
2023/06/03 01:31:50;;;;;;;0.95;0.80;;;21.20;53.00;;;;;;8431564;28;20039;-52
2023/06/03 01:35:54;;;;;;;0.90;0.80;;;21.20;52.90;;;;;;8429621;28;20017;-51
2023/06/03 01:39:55;;;;;;;0.65;0.65;;;21.20;52.90;;;;;;8431423;28;20025;-49
2023/06/03 01:43:56;;;;;;;0.80;0.80;;;21.20;52.90;;;;;;8430141;28;20020;-53
2023/06/03 01:47:56;;;;;;;0.75;0.57;;;21.20;52.90;;;;;;8445942;28;20123;-51
2023/06/03 01:51:58;;;;;;;0.82;0.70;;;21.20;53.00;;;;;;8430615;28;20038;-52
2023/06/03 01:55:58;;;;;;;0.60;0.60;;;21.20;53.00;;;;;;8444932;28;20085;-50
2023/06/03 02:00:00;;;;;;;0.70;0.70;;;21.20;53.00;;;;;;8430535;28;20077;-50
2023/06/03 02:04:00;;;;;;;0.70;0.70;;;21.20;53.00;;;;;;8428857;28;20032;-49
2023/06/03 02:08:01;;;;;;;0.80;0.77;;;21.20;53.00;;;;;;8430185;28;20077;-50
2023/06/03 02:12:02;;;;;;;0.68;0.68;;;21.20;53.00;;;;;;8411120;28;20546;-50
2023/06/03 02:16:03;;;;;;;0.68;0.60;;;21.20;53.00;;;;;;8430083;28;20028;-50
2023/06/03 02:20:05;;;;;;;0.80;0.80;;;21.20;53.00;;;;;;8429306;28;20024;-50
2023/06/03 02:24:08;;;;;;;0.82;0.82;;;21.20;53.00;;;;;;8429132;28;20055;-51
2023/06/03 02:28:09;;;;;;;0.70;0.70;;;21.20;53.00;;;;;;8429221;28;20036;-50
2023/06/03 02:32:09;;;;;;;0.70;0.70;;;21.20;53.00;;;;;;8429506;28;20035;-51
2023/06/03 02:36:11;;;;;;;0.60;0.60;;;21.20;53.00;;;;;;8429764;28;20416;-52
2023/06/03 02:40:12;;;;;;;0.70;0.70;;;21.20;53.00;;;;;;8428127;28;20050;-53
2023/06/03 02:44:13;;;;;;;0.60;0.60;;;21.20;53.00;;;;;;8428813;28;20551;-48
2023/06/03 02:48:14;;;;;;;0.70;0.70;;;21.20;53.00;;;;;;8426640;28;20490;-48
2023/06/03 02:52:15;;;;;;;0.68;0.68;;;21.20;53.00;;;;;;8425462;28;20487;-49
2023/06/03 02:56:16;;;;;;;0.63;0.63;;;21.20;53.00;;;;;;8426540;28;20039;-49
2023/06/03 03:00:17;;;;;;;0.80;0.80;;;21.20;53.00;;;;;;8429104;28;20029;-51
2023/06/03 03:04:18;;;;;;;0.80;0.80;;;21.20;53.00;;;;;;8410506;28;20087;-51
2023/06/03 03:08:19;;;;;;;0.88;0.70;;;21.10;53.00;;;;;;8428512;28;20101;-51
2023/06/03 03:12:20;;;;;;;;;;;21.20;53.00;;;;;;8429170;28;20145;-49
2023/06/03 03:16:21;;;;;;;0.70;0.70;;;21.20;53.00;;;;;;8427103;28;19959;-50
2023/06/03 03:20:22;;;;;;;;;;;21.20;53.00;;;;;;8429464;28;20028;-51
2023/06/03 03:24:24;;;;;;;0.50;0.50;;;21.10;53.00;;;;;;8426886;28;19926;-51
2023/06/03 03:28:25;;;;;;;0.70;0.70;;;21.10;53.00;;;;;;8428667;28;20038;-51
2023/06/03 03:32:26;;;;;;;0.80;0.60;;;21.20;53.00;;;;;;8427436;28;20031;-50
2023/06/03 03:36:30;;;;;;;;;;;21.20;53.00;;;;;;8428866;28;20085;-51
2023/06/03 03:40:33;;;;;;;0.70;0.70;;;21.10;53.00;;;;;;8428126;28;19904;-52
2023/06/03 03:44:33;;;;;;;0.98;0.85;;;21.10;53.10;;;;;;8427539;28;20119;-52
2023/06/03 03:48:34;;;;;;;0.60;0.60;;;21.10;53.10;;;;;;8409713;28;20028;-51
2023/06/03 03:52:35;;;;;;;0.95;0.70;;;21.10;53.10;;;;;;8427354;28;20043;-50
2023/06/03 03:56:35;;;;;;;0.73;0.73;;;21.10;53.10;;;;;;8428378;28;20175;-52
2023/06/03 04:00:36;;;;;;;0.88;0.88;;;21.10;53.10;;;;;;8442457;28;20035;-52
2023/06/03 04:04:42;;;;;;;1.13;0.68;;;21.10;53.10;;;;;;8433456;28;20509;-52
2023/06/03 04:08:46;;;;;;;1.02;0.90;;;21.10;53.10;;;;;;8432740;28;20040;-50
2023/06/03 04:12:48;;;;;;;0.80;0.73;;;21.20;53.10;;;;;;8434159;28;20032;-52
2023/06/03 04:16:57;;;;;;;0.70;0.70;;;21.20;53.00;;;;;;8432363;28;20504;-51
2023/06/03 04:20:59;;;;;;;1.30;0.95;;;21.30;52.80;;;;;;8432909;28;20063;-49
2023/06/03 04:25:07;;;;;;;0.50;0.50;;;21.30;52.70;;;;;;8433941;28;20673;-49
2023/06/03 04:29:08;;;;;;;0.70;0.70;;;21.30;52.70;;;;;;8431842;28;20565;-49
2023/06/03 04:33:08;;;;;;;0.75;0.75;;;21.30;52.70;;;;;;8433365;28;20397;-50
2023/06/03 04:37:09;;;;;;;0.60;0.60;;;21.30;52.70;;;;;;8431894;28;20032;-49
2023/06/03 04:41:14;;;;;;;0.93;0.68;;;21.30;52.70;;;;;;8433395;28;20081;-50
2023/06/03 04:45:15;;;;;;;0.50;0.50;;;21.30;52.80;;;;;;8431688;28;20028;-51
2023/06/03 04:49:15;;;;;;;0.80;0.80;;;21.30;52.80;;;;;;8432820;28;20028;-51
2023/06/03 04:53:16;;;;;;;0.68;0.68;;;21.30;52.80;;;;;;8432223;28;20449;-49
2023/06/03 04:57:17;;;;;;;0.70;0.70;;;21.20;52.70;;;;;;8432078;28;20032;-50
2023/06/03 05:01:21;;;;;;;0.80;0.80;;;21.30;52.80;;;;;;8432008;28;20059;-51
2023/06/03 05:05:26;;;;;;;0.93;0.82;;;21.20;52.80;;;;;;8430816;28;20075;-52
2023/06/03 05:09:26;;;;;;;0.88;0.88;;;21.30;52.80;;;;;;8432631;28;20038;-51
2023/06/03 05:13:27;;;;;;;1.73;0.90;;;21.20;52.80;;;;;;8429831;28;20040;-52
2023/06/03 05:17:28;;;;;;;0.70;0.70;;;21.20;52.80;;;;;;8431604;28;20020;-52
2023/06/03 05:21:28;;;;;;;0.55;0.55;;;21.20;52.90;;;;;;8430425;28;20036;-51
2023/06/03 05:25:29;;;;;;;1.00;0.60;;;21.20;52.90;;;;;;8431821;28;20040;-51
2023/06/03 05:29:29;;;;;;;0.60;0.60;;;21.20;52.90;;;;;;8430464;28;20028;-51
2023/06/03 05:33:32;;;;;;;0.88;0.88;;;21.20;52.90;;;;;;8432141;28;20032;-51
2023/06/03 05:37:33;;;;;;;0.80;0.80;;;21.20;53.00;;;;;;8430963;28;20103;-50
2023/06/03 05:41:33;;;;;;;0.80;0.80;;;21.20;53.00;;;;;;8430851;28;20027;-51
2023/06/03 05:45:34;;;;;;;0.73;0.73;;;21.20;53.00;;;;;;8431058;28;20331;-50
2023/06/03 05:49:35;;;;;;;0.60;0.60;;;21.20;53.00;;;;;;8411436;28;20028;-50
2023/06/03 05:53:38;;;;;;;0.73;0.68;;;21.20;52.90;;;;;;8430707;28;20024;-51
2023/06/03 05:57:40;;;;;;;0.60;0.60;;;21.20;53.00;;;;;;8429457;28;20016;-52
2023/06/03 06:01:41;;;;;;;0.60;0.60;;;21.20;53.50;;;;;;8430513;28;20032;-50
2023/06/03 06:05:41;;;;;;;0.88;0.70;;;21.20;53.00;;;;;;8428903;28;20051;-51
2023/06/03 06:09:42;;;;;;;0.70;0.68;;;21.20;53.00;;;;;;8430543;28;20024;-51
2023/06/03 06:13:43;;;;;;;0.93;0.82;;;21.20;53.00;;;;;;8429747;28;20035;-52
2023/06/03 06:17:44;;;;;;;0.60;0.60;;;21.20;53.00;;;;;;8429261;28;20024;-51
2023/06/03 06:21:47;;;;;;;0.80;0.80;;;21.20;53.00;;;;;;8429554;28;20106;-52
2023/06/03 06:25:49;;;;;;;0.60;0.60;;;21.20;53.00;;;;;;8427982;28;20032;-51
2023/06/03 06:29:52;;;;;;;0.65;0.60;;;21.20;52.90;;;;;;8429472;28;20108;-52
2023/06/03 06:33:53;;;;;;;1.27;0.77;;;21.20;52.80;;;;;;8428564;28;20110;-50
2023/06/03 06:37:57;;;;;;;0.80;0.65;;;21.30;52.80;;;;;;8429357;28;20598;-49
2023/06/03 06:42:10;;;;;;;0.93;0.75;;;21.30;52.90;;;;;;8428338;28;20111;-50
2023/06/03 06:46:11;;;;;;;0.65;0.60;;;21.20;52.90;;;;;;8430394;28;20103;-50
2023/06/03 06:50:27;;;;;;;0.70;0.70;;;21.20;52.80;;;;;;8428498;28;20504;-53
2023/06/03 06:54:28;;;;;;;0.70;0.70;;;21.20;52.90;;;;;;8409399;28;20039;-50
2023/06/03 06:58:36;;;;;;;0.50;0.50;;;21.20;52.90;;;;;;8429312;28;20020;-51
2023/06/03 07:02:37;;;;;;;0.73;0.73;;;21.20;52.90;;;;;;8427756;28;20108;-51
2023/06/03 07:06:38;;;;;;;0.77;0.65;;;21.20;52.90;;;;;;8428710;28;20040;-52
2023/06/03 07:10:39;;;;;;;0.98;0.60;;;21.20;53.00;;;;;;8427767;28;20063;-52
2023/06/03 07:14:40;;;;;;;;;;;21.20;53.00;;;;;;8429637;28;20115;-52
2023/06/03 07:18:40;;;;;;;1.17;1.00;;;21.20;53.00;;;;;;8428599;28;19904;-50
2023/06/03 07:22:41;;;;;;;0.70;0.70;;;21.20;53.00;;;;;;8427802;28;20028;-52
2023/06/03 07:26:42;;;;;;;0.80;0.80;;;21.20;53.00;;;;;;8429053;28;20162;-50
2023/06/03 07:30:44;;;;;;;0.65;0.65;;;21.20;53.00;;;;;;8427483;28;20024;-50
2023/06/03 07:34:44;;;;;;;0.70;0.70;;;21.20;53.00;;;;;;8428510;28;20078;-51
2023/06/03 07:38:57;;;;;;;0.60;0.60;;;21.20;53.00;;;;;;8432086;28;20062;-51
2023/06/03 07:42:57;;;;;;;0.73;0.73;;;21.20;53.00;;;;;;8435004;28;20036;-53
2023/06/03 07:46:58;;;;;;;0.73;0.70;;;21.20;53.00;;;;;;8433225;28;20466;-52
2023/06/03 07:50:59;;;;;;;;;;;21.20;53.00;;;;;;8435209;28;20314;-51
2023/06/03 07:55:00;;;;;;;0.70;0.60;;;21.20;53.00;;;;;;8434025;28;20365;-52
2023/06/03 07:59:03;;;;;;;0.70;0.60;;;21.20;53.00;;;;;;8433624;28;20032;-51
2023/06/03 08:03:04;;;;;;;0.70;0.70;;;21.20;53.00;;;;;;8434465;28;20036;-51
2023/06/03 08:07:06;;;;;;;1.58;0.80;;;21.20;53.00;;;;;;8404433;28;20410;-51
2023/06/03 08:11:08;;;;;;;0.77;0.77;;;21.20;53.00;;;;;;8400618;28;20015;-51
2023/06/03 08:15:18;;;;;;;;;;;21.20;53.00;;;;;;8399348;28;20410;-50
2023/06/03 08:19:19;;;;;;;0.75;0.75;;;21.20;53.00;;;;;;8400351;28;19911;-50
2023/06/03 08:23:19;;;;;;;0.60;0.60;;;21.20;53.00;;;;;;8398801;28;20033;-51
2023/06/03 08:27:20;;;;;;;0.70;0.70;;;21.20;53.00;;;;;;8400196;28;20494;-51
2023/06/03 08:31:21;;;;;;;0.70;0.70;;;21.20;53.00;;;;;;8398895;28;20059;-50
2023/06/03 08:35:22;;;;;;;0.70;0.70;;;21.10;53.00;;;;;;8399177;28;20478;-52
2023/06/03 08:39:22;;;;;;;0.68;0.68;;;21.10;53.00;;;;;;8399788;28;20064;-50
2023/06/03 08:43:30;;;;;;;0.68;0.68;;;21.10;53.10;;;;;;8398039;28;20028;-51
2023/06/03 08:48:03;;;;;;;0.73;0.70;;;21.20;53.10;;;;;;8399584;28;20033;-51
2023/06/03 08:52:08;;;;;;;0.95;0.77;;;21.10;53.10;;;;;;8398451;28;20381;-51
2023/06/03 08:56:11;;;;;;;0.70;0.70;;;21.10;53.10;;;;;;8398306;28;20047;-51
2023/06/03 09:00:15;;;;;;;0.70;0.70;;;21.10;53.10;;;;;;8399030;28;20044;-51
2023/06/03 09:04:16;;;;;;;0.85;0.75;;;21.10;53.00;;;;;;8383677;28;20042;-54
2023/06/03 09:08:17;;;;;;;0.50;0.50;;;21.10;53.10;;;;;;8432142;28;20453;-51
2023/06/03 09:12:19;;;;;;;0.57;0.57;;;21.10;53.10;;;;;;8431056;28;20165;-49
2023/06/03 09:16:20;;;;;;;;;;;21.10;53.10;;;;;;8432281;28;20036;-53
2023/06/03 09:20:21;;;;;;;0.88;0.70;;;21.10;53.10;;;;;;8430661;28;19915;-53
2023/06/03 09:24:22;;;;;;;0.98;0.88;;;21.10;53.10;;;;;;8431795;28;20156;-51
2023/06/03 09:28:22;;;;;;;0.70;0.70;;;21.10;53.10;;;;;;8430783;28;20106;-50
2023/06/03 09:32:23;;;;;;;0.60;0.60;;;21.10;53.10;;;;;;8412856;28;20110;-51
2023/06/03 09:36:25;;;;;;;1.02;0.98;;;21.10;53.10;;;;;;8430596;28;20032;-51
2023/06/03 09:40:30;;;;;;;0.85;0.70;;;21.10;53.10;;;;;;8431271;28;20026;-52
2023/06/03 09:44:55;;;;;;;0.60;0.60;;;21.10;53.10;;;;;;8431067;28;20031;-51
2023/06/03 09:49:17;;;;;;;0.80;0.80;;;21.20;53.10;;;;;;8411277;28;20071;-52
2023/06/03 09:53:19;;;;;;;;;;;21.10;53.10;;;;;;8431552;28;20070;-50
2023/06/03 09:57:20;;;;;;;0.90;0.90;;;21.10;53.10;;;;;;8430988;28;19904;-51
2023/06/03 10:01:31;;;;;;;0.60;0.60;;;21.10;53.10;;;;;;8429248;28;20036;-51
2023/06/03 10:05:33;;;;;;;0.57;0.57;;;21.10;53.10;;;;;;8430524;28;20048;-50
2023/06/03 10:09:34;;;;;;;0.80;0.70;;;21.20;53.20;;;;;;8429329;28;20036;-52
2023/06/03 10:13:35;;;;;;;0.65;0.65;;;21.10;53.10;;;;;;8430054;28;20042;-51
2023/06/03 10:17:45;;;;;;;1.08;0.75;;;21.10;53.10;;;;;;8428944;28;20024;-51
2023/06/03 10:21:46;;;;;;;0.70;0.70;;;21.10;53.10;;;;;;8429512;28;20126;-51
2023/06/03 10:25:52;;;;;;;0.77;0.70;;;21.10;53.20;;;;;;8429281;28;20107;-51
2023/06/03 10:29:55;;;;;;;1.10;0.77;;;21.10;53.60;;;;;;8428851;28;20028;-51
2023/06/03 10:33:56;;;;;;;0.50;0.50;;;21.10;53.10;;;;;;8429887;28;20032;-49
2023/06/03 10:37:59;;;;;;;1.00;0.80;;;21.10;53.10;;;;;;8428571;28;20028;-51
2023/06/03 10:42:03;;;;;;;0.80;0.80;;;21.10;53.20;;;;;;8427371;28;20024;-49
2023/06/03 10:46:04;;;;;;;0.82;0.70;;;21.10;53.10;;;;;;8427171;28;20020;-49
2023/06/03 10:50:29;;;;;;;0.77;0.70;;;21.10;53.10;;;;;;8442649;28;20020;-51
2023/06/03 10:55:01;;;;;;;0.70;0.70;;;21.10;53.10;;;;;;8429306;28;20125;-51
2023/06/03 10:59:04;;;;;;;0.70;0.70;;;21.10;53.10;;;;;;8427930;28;20034;-51
2023/06/03 11:03:06;;;;;;;0.70;0.70;;;21.10;53.10;;;;;;8410813;28;20036;-51
2023/06/03 11:07:29;;;;;;;1.10;0.90;;;21.10;53.10;;;;;;8428306;28;20047;-52
2023/06/03 11:11:58;;;;;;;0.75;0.75;;;21.10;53.10;;;;;;8429055;28;20489;-52
2023/06/03 11:16:03;;;;;;;0.95;0.80;;;21.10;53.10;;;;;;8429637;28;20044;-50
2023/06/03 11:20:04;;;;;;;0.80;0.80;;;21.10;53.10;;;;;;8435758;28;20024;-52
2023/06/03 11:24:05;;;;;;;0.73;0.73;;;21.10;53.10;;;;;;8435720;28;20024;-52
2023/06/03 11:28:28;;;;;;;0.73;0.68;;;21.10;53.10;;;;;;8435510;28;20032;-50
2023/06/03 11:32:30;;;;;;;0.88;0.88;;;21.20;53.10;;;;;;8434742;28;20020;-51
2023/06/03 11:36:53;;;;;;;1.13;1.00;;;21.20;53.10;;;;;;8434950;28;20032;-50
2023/06/03 11:40:54;;;;;;;0.88;0.73;;;21.20;53.10;;;;;;8434433;28;20024;-50
2023/06/03 11:45:21;;;;;;;0.65;0.60;;;21.20;53.00;;;;;;8434440;28;20039;-51
2023/06/03 11:49:22;;;;;;;0.73;0.73;;;21.10;53.00;;;;;;8434664;28;20432;-51
2023/06/03 11:53:35;;;;;;;0.52;0.52;;;21.10;53.00;;;;;;8433274;28;20027;-51
2023/06/03 11:57:37;;;;;;;0.77;0.77;;;21.10;53.10;;;;;;8434264;28;20055;-53
2023/06/03 12:01:59;;;;;;;0.70;0.60;;;21.10;53.10;;;;;;8433806;28;20024;-51
2023/06/03 12:06:02;;;;;;;0.80;0.80;;;21.10;53.10;;;;;;8431807;28;20056;-52
2023/06/03 12:10:02;;;;;;;3.58;1.27;;;21.10;53.00;;;;;;8431688;28;20032;-52
2023/06/03 12:14:03;;;;;;;4.18;2.60;;;21.20;53.90;;;;;;8430779;28;20051;-50
2023/06/03 12:18:04;;;;;;;5.15;2.58;;;21.30;52.80;;;;;;8431985;28;20028;-49
2023/06/03 12:22:05;;;;;;;4.93;3.30;;;21.40;52.70;;;;;;8429971;28;20035;-50
2023/06/03 12:26:06;;;;;;;11.73;4.40;;;21.50;51.50;;;;;;8431731;28;20024;-49
2023/06/03 12:30:07;;;;;;;7.70;4.75;;;21.50;50.90;;;;;;8430657;28;20028;-51
2023/06/03 12:34:10;;;;;;;8.18;4.60;;;21.60;51.20;;;;;;8430567;28;20610;-52
2023/06/03 12:38:10;;;;;;;6.57;4.50;;;21.60;50.50;;;;;;8431627;28;20466;-50
2023/06/03 12:42:12;;;;;;;8.82;5.03;;;21.60;50.50;;;;;;8430332;28;20439;-51
2023/06/03 12:46:19;;;;;;;5.82;4.30;;;21.60;49.70;;;;;;8429903;28;20116;-52
2023/06/03 12:50:20;;;;;;;8.50;4.32;;;21.60;49.70;;;;;;8429477;28;20031;-52
2023/06/03 12:54:21;;;;;;;7.47;3.80;;;21.50;50.60;;;;;;8429792;28;20032;-50
2023/06/03 12:58:22;;;;;;;11.43;4.30;;;21.50;50.70;;;;;;8428969;28;20024;-47
2023/06/03 13:02:22;;;;;;;7.25;4.38;;;21.60;50.80;;;;;;8428673;28;20693;-51
2023/06/03 13:06:25;;;;;;;7.28;5.00;;;21.60;50.00;;;;;;8389583;28;1127020;-47
2023/06/03 13:10:25;;;;;;;11.98;4.72;;;21.70;49.20;;;;;;8430580;28;20109;-48
2023/06/03 13:14:26;;;;;;;8.68;5.35;;;21.80;49.40;;;;;;8429967;28;20032;-50
2023/06/03 13:18:28;;;;;;;8.45;5.25;;;21.80;50.10;;;;;;8430866;28;20085;-49
2023/06/03 13:22:28;;;;;;;10.82;5.82;;;21.80;50.60;;;;;;8431502;28;20392;-46
2023/06/03 13:26:29;;;;;;;9.63;5.45;;;21.90;49.90;;;;;;8430339;28;20085;-49
2023/06/03 13:30:29;;;;;;;7.60;5.57;;;21.90;49.70;;;;;;8431523;28;20114;-49
2023/06/03 13:34:31;;;;;;;8.90;5.38;;;21.90;49.70;;;;;;8428950;28;20059;-49
2023/06/03 13:38:31;;;;;;;10.48;6.38;;;21.90;49.10;;;;;;8431419;28;20488;-48
2023/06/03 13:42:32;;;;;;;8.38;5.50;;;22.00;49.30;;;;;;8449254;28;20024;-49
2023/06/03 13:46:33;;;;;;;10.38;5.75;;;22.00;48.80;;;;;;8464514;28;20054;-51
2023/06/03 13:50:33;;;;;;;8.07;5.43;;;21.90;48.60;;;;;;8445985;28;20085;-51
2023/06/03 13:54:34;;;;;;;10.85;5.97;;;21.80;49.30;;;;;;8464145;28;20061;-50
2023/06/03 13:58:34;;;;;;;8.00;5.35;;;21.80;49.40;;;;;;8463794;28;20055;-53
2023/06/03 14:02:35;;;;;;;9.68;5.60;;;21.80;50.40;;;;;;8463763;28;20477;-52
2023/06/03 14:06:36;;;;;;;16.15;6.00;;;22.10;49.70;;;;;;8463740;28;20564;-53
2023/06/03 14:10:37;;;;;;;7.68;5.43;;;22.30;49.70;;;;;;8451946;28;20032;-52
2023/06/03 14:14:38;;;;;;;11.43;6.50;;;22.40;50.90;;;;;;8437624;28;20146;-50
2023/06/03 14:18:38;;;;;;;13.38;6.32;;;22.40;50.20;;;;;;8455776;28;20027;-51
2023/06/03 14:22:39;;;;;;;14.18;6.05;;;22.40;49.50;;;;;;8439049;28;20032;-53
2023/06/03 14:26:40;;;;;;;13.57;5.95;;;22.50;50.70;;;;;;8429458;28;20060;-52
2023/06/03 14:30:40;;;;;;;10.20;5.72;;;22.60;50.20;;;;;;8448486;28;20514;-52
2023/06/03 14:34:41;;;;;;;13.20;6.03;;;22.50;49.70;;;;;;8462942;28;20042;-49
2023/06/03 14:38:41;;;;;;;16.15;7.00;;;22.50;50.20;;;;;;8462918;28;20069;-54
2023/06/03 14:42:42;;;;;;;18.83;6.07;;;22.50;50.30;;;;;;8433620;28;20080;-54
2023/06/03 14:46:43;;;;;;;11.27;6.63;;;22.60;49.90;;;;;;8428852;28;20036;-55
2023/06/03 14:50:43;;;;;;;9.77;6.40;;;22.60;48.80;;;;;;8429047;28;20114;-55
2023/06/03 14:54:44;;;;;;;11.27;6.95;;;22.60;48.90;;;;;;8428781;28;20043;-53
2023/06/03 14:58:45;;;;;;;13.63;6.43;;;22.60;49.30;;;;;;8410767;28;20437;-52
2023/06/03 15:02:45;;;;;;;13.45;7.07;;;22.70;49.00;;;;;;8428629;28;20020;-54
2023/06/03 15:06:47;;;;;;;11.95;6.57;;;22.70;49.20;;;;;;8428698;28;20056;-50
2023/06/03 15:10:49;;;;;;;17.23;7.07;;;22.60;48.20;;;;;;8428873;28;20111;-50
2023/06/03 15:14:49;;;;;;;13.07;6.65;;;22.60;48.60;;;;;;8456107;28;20492;-52
2023/06/03 15:18:50;;;;;;;16.33;7.03;;;22.60;48.50;;;;;;8461700;28;20444;-54
2023/06/03 15:22:51;;;;;;;17.00;7.20;;;22.60;48.50;;;;;;8461953;28;20023;-51
2023/06/03 15:26:51;;;;;;;11.85;7.10;;;22.50;48.50;;;;;;8462819;28;20115;-52
2023/06/03 15:30:52;;;;;;;13.98;6.95;;;22.40;49.10;;;;;;8462370;28;20028;-52
2023/06/03 15:34:52;;;;;;;15.75;6.82;;;22.40;49.00;;;;;;8464902;28;20464;-53
2023/06/03 15:38:53;;;;;;;11.40;6.88;;;22.50;48.30;;;;;;8463135;28;20492;-53
2023/06/03 15:42:57;;;;;;;16.15;7.28;;;22.50;47.80;;;;;;8433298;28;20032;-52
2023/06/03 15:46:58;;;;;;;10.52;5.72;;;22.50;47.70;;;;;;8428910;28;20027;-53
2023/06/03 15:50:58;;;;;;;15.00;6.70;;;22.50;48.40;;;;;;8462604;28;20031;-53
2023/06/03 15:55:00;;;;;;;9.68;7.05;;;22.50;48.30;;;;;;8463314;28;20388;-53
2023/06/03 15:59:00;;;;;;;10.75;6.40;;;22.50;47.80;;;;;;8448752;28;20354;-51
2023/06/03 16:03:01;;;;;;;13.73;6.68;;;22.50;48.00;;;;;;8469805;28;20190;-52
2023/06/03 16:07:03;;;;;;;17.35;7.30;;;22.60;48.70;;;;;;8469665;28;20055;-54
2023/06/03 16:11:04;;;;;;;15.95;6.82;;;22.60;48.60;;;;;;8458138;27;20107;-54
2023/06/03 16:15:06;;;;;;;18.98;6.93;;;22.60;48.30;;;;;;8435751;28;20111;-52
2023/06/03 16:19:06;;;;;;;23.30;7.40;;;22.60;48.70;;;;;;8420344;28;20078;-53
2023/06/03 16:23:07;;;;;;;18.02;6.93;;;22.60;49.30;;;;;;8468208;28;20067;-51
2023/06/03 16:27:08;;;;;;;19.15;7.35;;;22.70;49.10;;;;;;8469512;28;20024;-49
2023/06/03 16:31:08;;;;;;;18.55;7.63;;;22.60;50.20;;;;;;8467472;28;20043;-51
2023/06/03 16:35:09;;;;;;;16.45;6.53;;;22.70;49.30;;;;;;8469182;28;20070;-52
2023/06/03 16:39:10;;;;;;;16.60;6.55;;;22.70;50.20;;;;;;8468640;28;20039;-49
2023/06/03 16:43:10;;;;;;;15.43;6.57;;;22.80;50.70;;;;;;8434640;28;20056;-48
2023/06/03 16:47:11;;;;;;;15.50;6.97;;;22.70;50.00;;;;;;8435219;28;20092;-47
2023/06/03 16:51:12;;;;;;;20.00;6.72;;;22.70;50.70;;;;;;8433627;28;20081;-52
2023/06/03 16:55:12;;;;;;;17.65;7.53;;;22.60;51.00;;;;;;8434421;28;20036;-54
2023/06/03 16:59:13;;;;;;;15.52;6.07;;;22.60;51.20;;;;;;8433387;28;20055;-51
2023/06/03 17:03:14;;;;;;;9.70;6.07;;;22.60;51.10;;;;;;8434494;28;20031;-52
2023/06/03 17:07:14;;;;;;;18.38;6.65;;;22.60;50.90;;;;;;8433161;28;20048;-50
2023/06/03 17:11:15;;;;;;;12.75;6.95;;;22.60;51.30;;;;;;8432954;28;20032;-51
2023/06/03 17:15:16;;;;;;;13.07;6.60;;;22.60;50.70;;;;;;8432768;28;20142;-54
2023/06/03 17:19:16;;;;;;;12.18;6.90;;;22.60;50.00;;;;;;8434075;28;20035;-54
2023/06/03 17:23:17;;;;;;;11.15;6.15;;;22.50;50.70;;;;;;8433305;28;20516;-54
2023/06/03 17:27:17;;;;;;;11.43;6.72;;;22.60;50.50;;;;;;8438257;28;20504;-51
2023/06/03 17:31:18;;;;;;;18.90;6.93;;;22.50;50.60;;;;;;8466978;28;20393;-54
2023/06/03 17:35:20;;;;;;;15.25;6.80;;;22.50;50.60;;;;;;8465366;28;20035;-52
2023/06/03 17:39:21;;;;;;;13.55;6.75;;;22.50;49.90;;;;;;8463427;28;20027;-50
2023/06/03 17:43:22;;;;;;;18.73;7.13;;;22.50;49.70;;;;;;8429859;28;20082;-56
2023/06/03 17:47:22;;;;;;;10.05;6.53;;;22.60;50.60;;;;;;8431386;28;20077;-56
2023/06/03 17:51:23;;;;;;;15.30;6.53;;;22.60;50.40;;;;;;8429248;28;20481;-53
2023/06/03 17:55:24;;;;;;;21.95;7.38;;;22.60;51.00;;;;;;8430599;28;20659;-51
2023/06/03 17:59:25;;;;;;;19.83;6.10;;;22.60;50.70;;;;;;8448193;27;20446;-51
2023/06/03 18:03:25;;;;;;;18.52;6.22;;;22.60;50.60;;;;;;8437943;28;20127;-52
2023/06/03 18:07:26;;;;;;;13.02;6.03;;;22.60;50.90;;;;;;8427659;28;20078;-56
2023/06/03 18:11:26;;;;;;;17.52;6.03;;;22.60;50.70;;;;;;8412577;28;20028;-57
2023/06/03 18:15:27;;;;;;;15.45;6.80;;;22.60;50.40;;;;;;8430555;28;20032;-54
2023/06/03 18:19:28;;;;;;;12.98;7.10;;;22.60;51.00;;;;;;8427165;28;20035;-52
2023/06/03 18:23:29;;;;;;;13.75;6.53;;;22.60;50.70;;;;;;8413132;28;20039;-57
2023/06/03 18:27:30;;;;;;;10.73;6.72;;;22.60;50.50;;;;;;8428320;28;20140;-56
2023/06/03 18:31:30;;;;;;;15.43;6.50;;;22.60;50.50;;;;;;8430883;28;20032;-55
2023/06/03 18:35:31;;;;;;;11.00;5.65;;;22.60;51.00;;;;;;8428010;28;20035;-56
2023/06/03 18:39:31;;;;;;;13.52;6.15;;;22.60;50.80;;;;;;8427246;28;20031;-56
2023/06/03 18:43:32;;;;;;;9.52;5.75;;;22.60;51.00;;;;;;8426921;28;20062;-56
2023/06/03 18:47:33;;;;;;;9.88;6.05;;;22.50;49.80;;;;;;8409074;28;20562;-52
2023/06/03 18:51:36;;;;;;;9.75;5.50;;;22.50;51.10;;;;;;8430600;28;20036;-54
2023/06/03 18:55:37;;;;;;;16.05;6.82;;;22.50;50.30;;;;;;8427148;28;20028;-57
2023/06/03 18:59:38;;;;;;;14.80;5.95;;;22.50;50.30;;;;;;8429503;28;20039;-56
2023/06/03 19:03:40;;;;;;;14.20;5.40;;;22.80;49.70;;;;;;8410387;28;20062;-55
2023/06/03 19:07:41;;;;;;;13.65;5.68;;;22.80;50.70;;;;;;8428792;28;20043;-55
2023/06/03 19:11:42;;;;;;;15.40;5.57;;;22.80;51.00;;;;;;8426481;28;20505;-56
2023/06/03 19:15:42;;;;;;;;;;;22.70;51.20;;;;;;8429967;28;20066;-55
2023/06/03 19:19:43;;;;;;;9.87;5.87;;;22.60;51.40;;;;;;8427797;28;19904;-55
2023/06/03 19:23:44;;;;;;;15.00;5.20;;;22.60;51.60;;;;;;8428171;28;20036;-55
2023/06/03 19:27:44;;;;;;;11.13;5.47;;;22.60;51.70;;;;;;8427436;28;20028;-59
2023/06/03 19:31:45;;;;;;;9.18;5.32;;;22.60;51.80;;;;;;8428031;28;20035;-54
2023/06/03 19:35:46;;;;;;;15.23;5.90;;;22.50;52.10;;;;;;8417019;28;20159;-49
2023/06/03 19:39:46;;;;;;;15.82;5.32;;;22.50;51.90;;;;;;8431419;28;20059;-56
2023/06/03 19:43:49;;;;;;;12.23;5.50;;;22.50;52.30;;;;;;8434962;28;20058;-48
2023/06/03 19:47:56;;;;;;;10.65;5.35;;;22.50;52.20;;;;;;8433391;28;20032;-53
2023/06/03 19:51:56;;;;;;;16.98;5.85;;;22.50;52.30;;;;;;8433892;28;21143;-58
2023/06/03 19:55:57;;;;;;;10.57;5.72;;;22.50;52.20;;;;;;8437680;27;20457;-54
2023/06/03 19:59:58;;;;;;;14.85;5.07;;;22.60;52.30;;;;;;8441123;28;20143;-57
2023/06/03 20:04:00;;;;;;;9.73;5.43;;;22.60;52.50;;;;;;8441368;28;20024;-56
2023/06/03 20:08:02;;;;;;;12.15;4.85;;;22.50;52.30;;;;;;8442664;27;20032;-54
2023/06/03 20:12:03;;;;;;;14.73;5.90;;;22.50;52.30;;;;;;8440523;28;20346;-54
2023/06/03 20:16:03;;;;;;;13.73;5.88;;;22.50;52.40;;;;;;8437292;28;20396;-52
2023/06/03 20:20:06;;;;;;;13.45;4.80;;;22.50;52.40;;;;;;8439770;28;20118;-50
2023/06/03 20:24:07;;;;;;;6.13;4.70;;;22.50;52.50;;;;;;8438059;28;20039;-55
2023/06/03 20:28:08;;;;;;;10.68;5.15;;;22.50;52.50;;;;;;8439338;28;20020;-59
2023/06/03 20:32:08;;;;;;;9.25;5.38;;;22.50;52.70;;;;;;8438029;28;20039;-56
2023/06/03 20:36:09;;;;;;;11.10;4.65;;;22.40;52.50;;;;;;8437936;28;20036;-54
2023/06/03 20:40:10;;;;;;;7.72;4.72;;;22.50;52.80;;;;;;8436941;28;20051;-58
2023/06/03 20:44:11;;;;;;;9.43;4.75;;;22.50;52.70;;;;;;8440348;28;20035;-57
2023/06/03 20:48:11;;;;;;;7.82;4.47;;;22.50;52.60;;;;;;8438230;28;20043;-55
2023/06/03 20:52:14;;;;;;;12.70;5.00;;;22.40;52.70;;;;;;8438277;28;20165;-53
2023/06/03 20:56:14;;;;;;;15.73;5.07;;;22.50;52.80;;;;;;8432153;28;20048;-58
2023/06/03 21:00:15;;;;;;;11.60;5.82;;;22.40;53.00;;;;;;8431040;28;20057;-55